createdAt,value
2022-10-24T00:01:10.341Z,2.63
2022-10-24T00:03:37.446Z,3.23
2022-10-24T00:06:06.959Z,2.60
2022-10-24T00:08:35.498Z,2.90
2022-10-24T00:11:02.818Z,2.30
2022-10-24T00:13:29.404Z,2.53
2022-10-24T00:15:55.959Z,2.70
2022-10-24T00:18:22.539Z,2.80
2022-10-24T00:20:49.077Z,2.73
2022-10-24T00:23:15.662Z,2.50
2022-10-24T00:25:42.198Z,3.27
2022-10-24T00:28:09.195Z,2.30
2022-10-24T00:30:35.835Z,2.70
2022-10-24T00:33:02.376Z,2.77
2022-10-24T00:35:29.113Z,2.90
2022-10-24T00:37:55.638Z,2.60
2022-10-24T00:40:22.288Z,2.33
2022-10-24T00:42:49.771Z,2.70
2022-10-24T00:45:42.487Z,2.57
2022-10-24T00:48:38.244Z,2.10
2022-10-24T00:51:10.930Z,2.97
2022-10-24T00:53:44.108Z,2.27
2022-10-24T00:56:13.756Z,2.70
2022-10-24T00:58:42.816Z,2.77
2022-10-24T01:01:10.843Z,2.63
2022-10-24T01:03:37.589Z,2.60
2022-10-24T01:06:19.452Z,2.60
2022-10-24T01:08:55.822Z,2.53
2022-10-24T01:11:53.053Z,2.77
2022-10-24T01:14:45.326Z,2.70
2022-10-24T01:17:48.165Z,2.70
2022-10-24T01:20:20.474Z,3.03
2022-10-24T01:23:17.312Z,2.97
2022-10-24T01:25:56.285Z,2.90
2022-10-24T01:28:34.549Z,2.23
2022-10-24T01:31:34.955Z,2.63
2022-10-24T01:34:14.031Z,2.70
2022-10-24T01:37:02.873Z,2.50
2022-10-24T01:39:35.596Z,2.87
2022-10-24T01:42:04.307Z,2.80
2022-10-24T01:44:37.190Z,3.07
2022-10-24T01:47:13.009Z,2.87
2022-10-24T01:49:43.889Z,2.40
2022-10-24T01:52:14.710Z,3.10
2022-10-24T01:54:43.488Z,3.40
2022-10-24T01:57:10.631Z,2.60
2022-10-24T01:59:41.477Z,2.30
2022-10-24T02:02:26.980Z,3.13
2022-10-24T02:04:59.544Z,4.60
2022-10-24T02:07:28.402Z,2.90
2022-10-24T02:10:00.918Z,3.70
2022-10-24T02:12:29.390Z,3.63
2022-10-24T02:15:06.696Z,3.07
2022-10-24T02:17:33.633Z,3.07
2022-10-24T02:20:00.585Z,3.40
2022-10-24T02:22:51.404Z,3.40
2022-10-24T02:25:24.988Z,3.40
2022-10-24T02:28:10.321Z,3.30
2022-10-24T02:30:47.147Z,3.07
2022-10-24T02:33:15.926Z,2.90
2022-10-24T02:35:45.902Z,2.90
2022-10-24T02:38:41.959Z,3.60
2022-10-24T02:41:13.198Z,2.97
2022-10-24T02:43:41.626Z,3.07
2022-10-24T02:46:11.563Z,2.97
2022-10-24T02:48:45.179Z,3.20
2022-10-24T02:51:14.542Z,3.50
2022-10-24T02:53:41.293Z,2.70
2022-10-24T02:56:07.847Z,3.07
2022-10-24T02:58:34.479Z,3.17
2022-10-24T03:01:01.439Z,3.40
2022-10-24T03:03:28.078Z,3.20
2022-10-24T03:05:54.719Z,2.97
2022-10-24T03:08:21.643Z,3.33
2022-10-24T03:10:48.177Z,3.00
2022-10-24T03:13:14.757Z,3.30
2022-10-24T03:15:41.370Z,3.10
2022-10-24T03:18:08.027Z,4.33
2022-10-24T03:20:34.572Z,3.70
2022-10-24T03:23:01.175Z,3.87
2022-10-24T03:25:27.737Z,3.13
2022-10-24T03:27:54.318Z,3.83
2022-10-24T03:30:20.968Z,3.50
2022-10-24T03:32:47.911Z,3.70
2022-10-24T03:35:14.721Z,4.10
2022-10-24T03:37:41.764Z,4.07
2022-10-24T03:40:10.005Z,3.13
2022-10-24T03:42:36.894Z,4.43
2022-10-24T03:45:03.787Z,4.67
2022-10-24T03:47:30.582Z,3.77
2022-10-24T03:49:57.473Z,4.83
2022-10-24T03:52:24.519Z,4.63
2022-10-24T03:54:51.115Z,5.50
2022-10-24T03:57:17.661Z,5.33
2022-10-24T03:59:44.953Z,3.63
2022-10-24T04:02:13.206Z,4.20
2022-10-24T04:04:40.366Z,4.77
2022-10-24T04:07:06.905Z,4.80
2022-10-24T04:09:33.510Z,4.20
2022-10-24T04:12:00.169Z,4.90
2022-10-24T04:14:27.127Z,5.77
2022-10-24T04:16:53.667Z,4.37
2022-10-24T04:19:20.265Z,3.93
2022-10-24T04:21:47.942Z,4.77
2022-10-24T04:24:14.790Z,4.50
2022-10-24T04:26:41.478Z,4.83
2022-10-24T04:29:08.118Z,4.13
2022-10-24T04:31:34.757Z,4.80
2022-10-24T04:34:01.340Z,3.90
2022-10-24T04:36:27.975Z,4.13
2022-10-24T04:38:54.557Z,4.70
2022-10-24T04:41:21.140Z,3.50
2022-10-24T04:43:48.353Z,3.13
2022-10-24T04:46:14.923Z,4.00
2022-10-24T04:48:41.888Z,3.67
2022-10-24T04:51:08.577Z,3.67
2022-10-24T04:53:35.259Z,3.50
2022-10-24T04:56:01.795Z,3.67
2022-10-24T04:58:28.384Z,4.20
2022-10-24T05:00:54.938Z,3.20
2022-10-24T05:03:23.296Z,3.30
2022-10-24T05:05:50.206Z,4.50
2022-10-24T05:08:17.734Z,3.53
2022-10-24T05:10:44.640Z,3.37
2022-10-24T05:13:11.594Z,3.93
2022-10-24T05:15:38.619Z,4.30
2022-10-24T05:18:05.571Z,4.10
2022-10-24T05:20:32.363Z,4.03
2022-10-24T05:22:59.028Z,3.33
2022-10-24T05:25:25.563Z,3.77
2022-10-24T05:27:52.177Z,4.10
2022-10-24T05:30:18.822Z,3.30
2022-10-24T05:32:46.428Z,4.50
2022-10-24T05:35:13.815Z,4.57
2022-10-24T05:37:40.465Z,3.53
2022-10-24T05:40:08.797Z,3.80
2022-10-24T05:42:36.472Z,3.80
2022-10-24T05:45:03.433Z,5.03
2022-10-24T05:47:30.017Z,4.07
2022-10-24T05:49:56.603Z,4.43
2022-10-24T05:52:23.226Z,3.50
2022-10-24T05:54:55.801Z,3.97
2022-10-24T05:57:33.706Z,4.00
2022-10-24T06:00:00.820Z,4.40
2022-10-24T06:02:27.602Z,3.57
2022-10-24T06:04:56.056Z,3.60
2022-10-24T06:07:23.302Z,3.37
2022-10-24T06:09:51.033Z,3.93
2022-10-24T06:12:17.606Z,3.63
2022-10-24T06:14:44.816Z,3.43
2022-10-24T06:17:11.976Z,3.70
2022-10-24T06:19:39.475Z,4.43
2022-10-24T06:22:07.287Z,3.73
2022-10-24T06:24:36.182Z,3.10
2022-10-24T06:27:03.162Z,3.87
2022-10-24T06:29:29.923Z,3.30
2022-10-24T06:31:56.544Z,3.60
2022-10-24T06:34:23.406Z,4.80
2022-10-24T06:36:50.149Z,4.40
2022-10-24T06:39:16.771Z,3.97
2022-10-24T06:41:45.021Z,3.27
2022-10-24T06:44:14.976Z,3.90
2022-10-24T06:46:41.676Z,3.50
2022-10-24T06:49:08.241Z,4.30
2022-10-24T06:51:34.809Z,3.13
2022-10-24T06:54:01.567Z,3.40
2022-10-24T06:56:28.112Z,3.67
2022-10-24T06:58:55.086Z,3.50
2022-10-24T07:01:23.897Z,3.77
2022-10-24T07:03:51.647Z,4.07
2022-10-24T07:08:55.181Z,3.80
2022-10-24T07:11:21.769Z,3.57
2022-10-24T07:13:49.158Z,3.53
2022-10-24T07:16:16.834Z,3.30
2022-10-24T07:18:44.258Z,3.40
2022-10-24T07:21:15.423Z,3.00
2022-10-24T07:23:42.230Z,3.40
2022-10-24T07:26:12.816Z,3.30
2022-10-24T07:28:40.329Z,3.67
2022-10-24T07:31:07.256Z,3.97
2022-10-24T07:33:34.722Z,2.63
2022-10-24T07:36:01.280Z,3.10
2022-10-24T07:38:27.823Z,3.27
2022-10-24T07:40:54.360Z,3.17
2022-10-24T07:43:20.932Z,3.57
2022-10-24T07:45:50.564Z,3.70
2022-10-24T07:48:19.727Z,3.53
2022-10-24T07:50:48.681Z,3.53
2022-10-24T07:53:15.852Z,3.23
2022-10-24T07:55:43.602Z,3.23
2022-10-24T07:58:11.510Z,3.93
2022-10-24T08:00:44.007Z,2.90
2022-10-24T08:03:11.699Z,3.37
2022-10-24T08:05:42.113Z,3.50
2022-10-24T08:08:30.720Z,3.40
2022-10-24T08:10:56.208Z,4.33
2022-10-24T08:13:22.745Z,2.67
2022-10-24T08:15:49.660Z,3.23
2022-10-24T08:18:16.195Z,2.70
2022-10-24T08:20:43.021Z,3.03
2022-10-24T08:23:09.663Z,3.07
2022-10-24T08:25:39.927Z,3.20
2022-10-24T08:28:08.276Z,3.37
2022-10-24T08:30:35.780Z,4.90
2022-10-24T08:33:02.389Z,3.40
2022-10-24T08:35:28.919Z,3.07
2022-10-24T08:37:55.447Z,3.10
2022-10-24T08:40:22.350Z,2.90
2022-10-24T08:42:49.490Z,3.20
2022-10-24T08:45:23.209Z,2.67
2022-10-24T08:48:02.295Z,2.30
2022-10-24T08:50:33.790Z,3.27
2022-10-24T08:53:12.486Z,3.40
2022-10-24T08:56:06.721Z,3.10
2022-10-24T08:58:41.065Z,2.87
2022-10-24T09:01:14.577Z,3.60
2022-10-24T09:03:55.695Z,2.80
2022-10-24T09:06:30.064Z,2.73
2022-10-24T09:09:03.607Z,2.60
2022-10-24T09:11:43.718Z,2.80
2022-10-24T09:14:16.293Z,2.53
2022-10-24T09:16:45.254Z,1.90
2022-10-24T09:19:16.722Z,2.30
2022-10-24T09:21:44.382Z,2.63
2022-10-24T09:24:41.176Z,2.53
2022-10-24T09:27:15.621Z,2.53
2022-10-24T09:29:42.646Z,2.07
2022-10-24T09:32:16.357Z,1.63
2022-10-24T09:34:43.308Z,2.43
2022-10-24T09:37:49.212Z,2.30
2022-10-24T09:40:27.790Z,1.70
2022-10-24T09:43:16.241Z,1.63
2022-10-24T09:46:10.428Z,1.50
2022-10-24T09:48:45.797Z,1.60
2022-10-24T09:51:38.696Z,2.00
2022-10-24T09:54:07.650Z,1.37
2022-10-24T09:56:40.367Z,2.37
2022-10-24T09:59:22.338Z,1.60
2022-10-24T10:01:49.447Z,1.37
2022-10-24T10:04:18.840Z,2.30
2022-10-24T10:06:49.081Z,1.90
2022-10-24T10:09:41.716Z,2.50
2022-10-24T10:12:40.829Z,1.43
2022-10-24T10:15:26.827Z,1.60
2022-10-24T10:17:57.558Z,1.57
2022-10-24T10:20:39.211Z,1.50
2022-10-24T10:23:22.316Z,1.67
2022-10-24T10:25:48.960Z,1.47
2022-10-24T10:28:20.801Z,1.83
2022-10-24T10:30:55.901Z,1.60
2022-10-24T10:33:47.763Z,1.53
2022-10-24T10:36:22.745Z,1.60
2022-10-24T10:39:27.755Z,1.40
2022-10-24T10:42:02.810Z,2.47
2022-10-24T10:44:41.547Z,1.23
2022-10-24T10:47:34.806Z,1.50
2022-10-24T10:50:11.322Z,2.20
2022-10-24T10:52:50.950Z,1.80
2022-10-24T10:55:35.056Z,1.20
2022-10-24T10:58:38.838Z,1.50
2022-10-24T11:01:12.962Z,1.17
2022-10-24T11:03:54.402Z,1.60
2022-10-24T11:06:29.073Z,1.50
2022-10-24T11:09:37.307Z,1.73
2022-10-24T11:12:19.586Z,1.50
2022-10-24T11:14:55.167Z,1.40
2022-10-24T11:17:37.762Z,1.40
2022-10-24T11:20:13.387Z,1.30
2022-10-24T11:22:55.781Z,1.67
2022-10-24T11:25:33.187Z,1.17
2022-10-24T11:28:07.270Z,1.20
2022-10-24T11:30:43.115Z,1.03
2022-10-24T11:33:17.296Z,1.23
2022-10-24T11:36:00.704Z,1.70
2022-10-24T11:38:30.364Z,1.30
2022-10-24T11:41:15.938Z,1.33
2022-10-24T11:43:46.749Z,1.00
2022-10-24T11:46:26.264Z,1.20
2022-10-24T11:48:59.223Z,1.10
2022-10-24T11:51:49.753Z,1.20
2022-10-24T11:54:22.314Z,1.97
2022-10-24T11:56:54.905Z,1.70
2022-10-24T11:59:25.637Z,1.30
2022-10-24T12:01:55.357Z,2.40
2022-10-24T12:04:38.369Z,1.43
2022-10-24T12:07:22.561Z,1.10
2022-10-24T12:09:55.358Z,1.53
2022-10-24T12:12:32.938Z,1.63
2022-10-24T12:15:37.660Z,1.30
2022-10-24T12:18:24.421Z,1.70
2022-10-24T12:20:55.756Z,1.33
2022-10-24T12:23:27.515Z,1.90
2022-10-24T12:26:06.477Z,1.40
2022-10-24T12:28:34.223Z,1.60
2022-10-24T12:31:15.737Z,1.47
2022-10-24T12:34:08.303Z,1.50
2022-10-24T12:37:12.443Z,1.00
2022-10-24T12:39:47.431Z,1.87
2022-10-24T12:42:37.351Z,1.50
2022-10-24T12:45:03.857Z,2.10
2022-10-24T12:48:12.891Z,1.87
2022-10-24T12:50:39.888Z,1.40
2022-10-24T12:53:29.143Z,1.47
2022-10-24T12:55:55.690Z,1.63
2022-10-24T12:58:31.831Z,1.23
2022-10-24T13:01:01.112Z,1.30
2022-10-24T13:03:55.549Z,1.37
2022-10-24T13:06:58.390Z,1.57
2022-10-24T13:09:54.023Z,1.30
2022-10-24T13:12:40.331Z,1.60
2022-10-24T13:15:24.734Z,1.53
2022-10-24T13:18:19.405Z,1.47
2022-10-24T13:20:51.523Z,1.20
2022-10-24T13:23:24.966Z,2.60
2022-10-24T13:25:57.135Z,1.67
2022-10-24T13:28:23.636Z,1.80
2022-10-24T13:31:00.184Z,1.77
2022-10-24T13:33:30.004Z,2.40
2022-10-24T13:36:18.036Z,2.30
2022-10-24T13:38:57.123Z,1.50
2022-10-24T13:41:34.416Z,1.90
2022-10-24T13:44:06.843Z,1.40
2022-10-24T13:46:54.232Z,1.60
2022-10-24T13:49:47.840Z,1.97
2022-10-24T13:52:24.344Z,1.80
2022-10-24T13:54:58.391Z,1.83
2022-10-24T13:57:26.266Z,1.63
2022-10-24T13:59:55.667Z,1.70
2022-10-24T14:02:28.374Z,1.10
2022-10-24T14:04:58.615Z,1.40
2022-10-24T14:07:28.977Z,1.50
2022-10-24T14:10:09.341Z,1.20
2022-10-24T14:12:39.321Z,1.40
2022-10-24T14:15:16.070Z,1.90
2022-10-24T14:17:53.893Z,1.70
2022-10-24T14:20:38.888Z,1.47
2022-10-24T14:23:25.671Z,1.97
2022-10-24T14:26:19.880Z,1.43
2022-10-24T14:28:59.848Z,2.60
2022-10-24T14:31:32.608Z,1.40
2022-10-24T14:33:59.130Z,1.50
2022-10-24T14:36:29.558Z,1.47
2022-10-24T14:38:59.108Z,1.20
2022-10-24T14:41:31.066Z,2.20
2022-10-24T14:43:59.367Z,1.60
2022-10-24T14:46:42.730Z,1.90
2022-10-24T14:49:27.699Z,2.13
2022-10-24T14:52:08.274Z,1.67
2022-10-24T14:54:35.589Z,2.40
2022-10-24T14:57:04.813Z,2.30
2022-10-24T14:59:36.221Z,2.00
2022-10-24T15:02:25.240Z,2.10
2022-10-24T15:04:53.782Z,2.53
2022-10-24T15:07:23.090Z,3.13
2022-10-24T15:09:55.560Z,2.40
2022-10-24T15:12:33.465Z,2.93
2022-10-24T15:15:22.729Z,3.03
2022-10-24T15:17:51.657Z,2.63
2022-10-24T15:20:22.368Z,1.67
2022-10-24T15:22:59.657Z,1.53
2022-10-24T15:25:34.795Z,1.70
2022-10-24T15:28:05.669Z,1.43
2022-10-24T15:30:37.166Z,2.43
2022-10-24T15:33:06.342Z,2.47
2022-10-24T15:35:41.262Z,2.53
2022-10-24T15:38:15.390Z,2.10
2022-10-24T15:40:44.930Z,2.00
2022-10-24T15:43:14.182Z,1.93
2022-10-24T15:45:40.775Z,3.23
2022-10-24T15:48:07.881Z,2.17
2022-10-24T15:50:34.902Z,2.80
2022-10-24T15:53:03.538Z,3.43
2022-10-24T15:55:32.028Z,1.93
2022-10-24T15:58:03.007Z,2.53
2022-10-24T16:00:29.738Z,2.17
2022-10-24T16:02:58.379Z,2.20
2022-10-24T16:05:29.694Z,2.90
2022-10-24T16:08:19.812Z,2.03
2022-10-24T16:10:51.857Z,2.53
2022-10-24T16:13:21.203Z,2.23
2022-10-24T16:15:48.387Z,2.40
2022-10-24T16:18:15.514Z,2.50
2022-10-24T16:20:42.509Z,2.27
2022-10-24T16:23:10.513Z,2.90
2022-10-24T16:25:37.842Z,2.30
2022-10-24T16:28:07.103Z,2.37
2022-10-24T16:30:36.754Z,2.17
2022-10-24T16:33:03.478Z,3.10
2022-10-24T16:35:32.634Z,2.73
2022-10-24T16:38:01.230Z,2.53
2022-10-24T16:40:29.027Z,3.13
2022-10-24T16:42:57.333Z,3.90
2022-10-24T16:45:24.972Z,6.43
2022-10-24T16:47:51.574Z,4.93
2022-10-24T16:50:23.926Z,2.90
2022-10-24T16:52:52.576Z,2.73
2022-10-24T16:55:20.924Z,3.27
2022-10-24T16:57:48.395Z,2.50
2022-10-24T17:00:17.371Z,2.73
2022-10-24T17:02:45.590Z,2.37
2022-10-24T17:05:13.471Z,2.73
2022-10-24T17:07:41.073Z,2.10
2022-10-24T17:10:09.265Z,3.80
2022-10-24T17:12:35.796Z,2.37
2022-10-24T17:15:02.423Z,10.27
2022-10-24T17:17:29.937Z,3.40
2022-10-24T17:19:56.610Z,2.43
2022-10-24T17:22:23.399Z,5.10
2022-10-24T17:24:50.349Z,2.80
2022-10-24T17:27:17.499Z,3.00
2022-10-24T17:29:44.625Z,3.33
2022-10-24T17:32:13.366Z,3.80
2022-10-24T17:34:41.891Z,3.13
2022-10-24T17:37:50.407Z,2.90
2022-10-24T17:40:20.495Z,2.23
2022-10-24T17:42:48.321Z,7.77
2022-10-24T17:45:17.849Z,7.67
2022-10-24T17:50:17.620Z,5.10
2022-10-24T17:52:50.126Z,2.17
2022-10-24T17:58:10.912Z,2.23
2022-10-24T18:00:37.545Z,2.87
2022-10-24T18:03:04.817Z,2.50
2022-10-24T18:05:34.152Z,2.33
2022-10-24T18:08:00.714Z,2.20
2022-10-24T18:10:27.251Z,2.20
2022-10-24T18:12:53.901Z,7.73
2022-10-24T18:15:20.794Z,2.63
2022-10-24T18:17:48.350Z,1.87
2022-10-24T18:20:15.660Z,2.80
2022-10-24T18:22:43.631Z,2.40
2022-10-24T18:25:13.011Z,2.73
2022-10-24T18:27:41.907Z,2.43
2022-10-24T18:30:09.833Z,3.73
2022-10-24T18:32:36.534Z,2.40
2022-10-24T18:35:03.357Z,3.77
2022-10-24T18:37:30.267Z,3.10
2022-10-24T18:39:57.074Z,2.00
2022-10-24T18:42:32.368Z,1.80
2022-10-24T18:44:59.969Z,3.13
2022-10-24T18:47:27.137Z,1.80
2022-10-24T18:49:54.455Z,3.27
2022-10-24T18:52:42.211Z,1.53
2022-10-24T18:55:19.015Z,1.67
2022-10-24T18:57:46.914Z,1.47
2022-10-24T19:00:17.428Z,2.10
2022-10-24T19:02:49.985Z,1.90
2022-10-24T19:05:16.770Z,1.70
2022-10-24T19:07:45.970Z,2.83
2022-10-24T19:10:25.394Z,2.40
2022-10-24T19:12:54.195Z,1.93
2022-10-24T19:15:21.653Z,3.63
2022-10-24T19:17:50.219Z,2.20
2022-10-24T19:20:20.169Z,1.77
2022-10-24T19:22:47.589Z,1.87
2022-10-24T19:25:15.680Z,2.23
2022-10-24T19:27:43.417Z,1.80
2022-10-24T19:30:11.064Z,1.93
2022-10-24T19:32:37.690Z,2.20
2022-10-24T19:35:04.622Z,2.33
2022-10-24T19:37:31.164Z,2.00
2022-10-24T19:39:57.783Z,4.17
2022-10-24T19:42:24.439Z,1.43
2022-10-24T19:44:54.521Z,1.97
2022-10-24T19:47:21.676Z,1.50
2022-10-24T19:49:49.424Z,1.87
2022-10-24T19:52:16.320Z,2.03
2022-10-24T19:54:42.861Z,2.03
2022-10-24T19:57:09.743Z,1.80
2022-10-24T19:59:36.532Z,1.60
2022-10-24T20:02:04.880Z,1.80
2022-10-24T20:04:31.772Z,1.87
2022-10-24T20:06:58.817Z,1.50
2022-10-24T20:09:25.449Z,1.70
2022-10-24T20:11:51.969Z,1.77
2022-10-24T20:14:19.375Z,1.93
2022-10-24T20:16:46.003Z,2.27
2022-10-24T20:19:12.572Z,2.63
2022-10-24T20:21:39.206Z,2.70
2022-10-24T20:24:06.224Z,2.43
2022-10-24T20:26:32.818Z,2.90
2022-10-24T20:28:59.696Z,1.80
2022-10-24T20:31:39.493Z,2.97
2022-10-24T20:34:10.717Z,2.17
2022-10-24T20:36:39.960Z,1.77
2022-10-24T20:39:07.842Z,1.87
2022-10-24T20:41:34.946Z,1.70
2022-10-24T20:44:03.462Z,1.90
2022-10-24T20:46:31.247Z,1.83
2022-10-24T20:48:58.259Z,1.83
2022-10-24T20:51:24.900Z,1.93
2022-10-24T20:53:51.914Z,1.43
2022-10-24T20:56:23.335Z,2.30
2022-10-24T20:58:51.525Z,1.90
2022-10-24T21:01:23.810Z,1.87
2022-10-24T21:03:51.789Z,2.10
2022-10-24T21:06:18.316Z,2.10
2022-10-24T21:08:48.026Z,1.97
2022-10-24T21:11:16.490Z,1.70
2022-10-24T21:13:44.293Z,2.23
2022-10-24T21:16:11.844Z,3.23
2022-10-24T21:18:38.428Z,3.00
2022-10-24T21:21:10.179Z,1.80
2022-10-24T21:23:36.870Z,2.43
2022-10-24T21:26:06.107Z,3.60
2022-10-24T21:28:33.447Z,3.07
2022-10-24T21:31:08.820Z,3.37
2022-10-24T21:33:35.774Z,1.87
2022-10-24T21:36:13.633Z,2.33
2022-10-24T21:38:41.905Z,2.37
2022-10-24T21:41:10.751Z,3.17
2022-10-24T21:43:40.236Z,4.20
2022-10-24T21:46:12.798Z,2.17
2022-10-24T21:48:41.138Z,2.67
2022-10-24T21:51:23.007Z,2.83
2022-10-24T21:53:55.488Z,4.20
2022-10-24T21:56:24.699Z,3.83
2022-10-24T21:58:54.497Z,3.03
2022-10-24T22:01:25.846Z,2.10
2022-10-24T22:03:54.189Z,2.50
2022-10-24T22:06:21.893Z,1.47
2022-10-24T22:08:50.140Z,2.20
2022-10-24T22:11:25.288Z,2.67
2022-10-24T22:13:52.389Z,2.27
2022-10-24T22:16:22.098Z,2.70
2022-10-24T22:18:49.878Z,2.67
2022-10-24T22:21:28.343Z,1.97
2022-10-24T22:23:56.720Z,2.33
2022-10-24T22:26:24.654Z,2.57
2022-10-24T22:28:51.468Z,1.97
2022-10-24T22:31:18.930Z,2.00
2022-10-24T22:33:45.593Z,3.50
2022-10-24T22:36:22.805Z,2.30
2022-10-24T22:38:53.865Z,1.90
2022-10-24T22:41:21.847Z,2.90
2022-10-24T22:43:49.264Z,2.00
2022-10-24T22:46:37.688Z,2.33
2022-10-24T22:49:15.639Z,2.93
2022-10-24T22:51:42.373Z,2.10
2022-10-24T22:54:17.909Z,2.70
2022-10-24T22:56:44.749Z,2.17
2022-10-24T22:59:11.602Z,2.50
2022-10-24T23:01:56.439Z,2.67
2022-10-24T23:04:56.991Z,2.90
2022-10-24T23:07:47.679Z,2.23
2022-10-24T23:10:19.895Z,2.97
2022-10-24T23:12:47.621Z,2.80
2022-10-24T23:15:16.569Z,2.40
2022-10-24T23:17:44.285Z,2.50
2022-10-24T23:20:24.715Z,2.10
2022-10-24T23:22:58.522Z,2.80
2022-10-24T23:25:36.724Z,2.70
2022-10-24T23:28:15.858Z,2.30
2022-10-24T23:30:42.679Z,1.80
2022-10-24T23:33:16.454Z,2.07
2022-10-24T23:35:44.209Z,2.43
2022-10-24T23:38:10.992Z,2.57
2022-10-24T23:40:38.483Z,2.40
2022-10-24T23:43:05.186Z,2.53
2022-10-24T23:45:39.417Z,1.90
2022-10-24T23:48:27.138Z,2.87
2022-10-24T23:50:59.330Z,3.30
2022-10-24T23:53:52.797Z,2.73
2022-10-24T23:56:24.923Z,2.13
2022-10-24T23:58:52.273Z,2.13
